createdAt,value
2018-08-30T00:01:58.680Z,20.80
2018-08-30T00:04:27.204Z,20.90
2018-08-30T00:06:55.699Z,20.80
2018-08-30T00:09:24.203Z,20.80
2018-08-30T00:11:52.734Z,20.80
2018-08-30T00:14:21.230Z,20.80
2018-08-30T00:16:49.732Z,20.80
2018-08-30T00:19:18.223Z,20.80
2018-08-30T00:21:46.718Z,20.80
2018-08-30T00:24:15.220Z,20.80
2018-08-30T00:26:43.716Z,20.80
2018-08-30T00:29:12.212Z,20.80
2018-08-30T00:31:41.048Z,20.70
2018-08-30T00:34:09.543Z,20.80
2018-08-30T00:36:38.031Z,20.70
2018-08-30T00:39:08.043Z,20.70
2018-08-30T00:41:36.803Z,20.70
2018-08-30T00:44:05.763Z,20.70
2018-08-30T00:46:34.271Z,20.70
2018-08-30T00:49:02.779Z,20.70
2018-08-30T00:51:31.275Z,20.70
2018-08-30T00:53:59.763Z,20.60
2018-08-30T00:56:28.260Z,20.70
2018-08-30T00:58:56.754Z,20.70
2018-08-30T01:01:25.266Z,20.70
2018-08-30T01:03:53.756Z,20.70
2018-08-30T01:06:22.247Z,20.70
2018-08-30T01:08:50.751Z,20.70
2018-08-30T01:11:19.262Z,20.60
2018-08-30T01:13:47.767Z,20.60
2018-08-30T01:16:16.278Z,20.60
2018-08-30T01:18:44.811Z,20.60
2018-08-30T01:21:13.660Z,20.60
2018-08-30T01:23:42.170Z,20.60
2018-08-30T01:26:10.663Z,20.60
2018-08-30T01:28:39.156Z,20.60
2018-08-30T01:31:07.654Z,20.60
2018-08-30T01:33:36.169Z,20.60
2018-08-30T01:36:04.804Z,20.60
2018-08-30T01:38:33.295Z,20.60
2018-08-30T01:41:01.788Z,20.50
2018-08-30T01:43:30.303Z,20.50
2018-08-30T01:45:58.794Z,20.50
2018-08-30T01:48:27.339Z,20.50
2018-08-30T01:50:55.837Z,20.50
2018-08-30T01:53:24.335Z,20.50
2018-08-30T01:55:52.831Z,20.50
2018-08-30T01:58:21.332Z,20.50
2018-08-30T02:00:49.835Z,20.50
2018-08-30T02:03:18.339Z,20.50
2018-08-30T02:05:46.835Z,20.50
2018-08-30T02:08:15.339Z,20.50
2018-08-30T02:10:43.843Z,20.50
2018-08-30T02:13:12.339Z,20.50
2018-08-30T02:15:40.840Z,20.50
2018-08-30T02:18:09.332Z,20.50
2018-08-30T02:20:37.828Z,20.40
2018-08-30T02:23:06.759Z,20.40
2018-08-30T02:25:35.395Z,20.40
2018-08-30T02:28:03.887Z,20.40
2018-08-30T02:30:32.379Z,20.40
2018-08-30T02:33:00.875Z,20.40
2018-08-30T02:35:29.371Z,20.40
2018-08-30T02:37:57.875Z,20.40
2018-08-30T02:40:26.505Z,20.40
2018-08-30T02:42:55.000Z,20.40
2018-08-30T02:45:23.496Z,20.40
2018-08-30T02:47:52.299Z,20.40
2018-08-30T02:50:21.040Z,20.40
2018-08-30T02:52:49.527Z,20.40
2018-08-30T02:55:18.044Z,20.30
2018-08-30T02:57:46.543Z,20.30
2018-08-30T03:00:15.103Z,20.30
2018-08-30T03:02:43.593Z,20.30
2018-08-30T03:05:12.097Z,20.30
2018-08-30T03:07:40.608Z,20.30
2018-08-30T03:10:09.104Z,20.30
2018-08-30T03:12:37.587Z,20.30
2018-08-30T03:15:13.473Z,20.30
2018-08-30T03:17:41.975Z,20.30
2018-08-30T03:20:12.815Z,20.30
2018-08-30T03:22:42.227Z,20.30
2018-08-30T03:25:10.739Z,20.30
2018-08-30T03:27:39.239Z,20.30
2018-08-30T03:30:08.603Z,20.30
2018-08-30T03:32:37.307Z,20.30
2018-08-30T03:35:05.843Z,20.30
2018-08-30T03:37:34.332Z,20.20
2018-08-30T03:40:02.823Z,20.20
2018-08-30T03:42:31.355Z,20.20
2018-08-30T03:44:59.848Z,20.20
2018-08-30T03:47:28.359Z,20.20
2018-08-30T03:49:56.850Z,20.20
2018-08-30T03:52:25.359Z,20.20
2018-08-30T03:54:53.858Z,20.20
2018-08-30T03:57:22.419Z,20.20
2018-08-30T03:59:50.923Z,20.20
2018-08-30T04:02:19.427Z,20.20
2018-08-30T04:04:47.935Z,20.20
2018-08-30T04:07:16.423Z,20.20
2018-08-30T04:09:44.944Z,20.20
2018-08-30T04:12:13.459Z,20.20
2018-08-30T04:14:41.952Z,20.20
2018-08-30T04:17:10.461Z,20.20
2018-08-30T04:19:38.963Z,20.20
2018-08-30T04:22:07.520Z,20.20
2018-08-30T04:24:35.996Z,20.20
2018-08-30T04:27:04.964Z,20.20
2018-08-30T04:29:33.462Z,20.20
2018-08-30T04:32:01.961Z,20.20
2018-08-30T04:34:30.460Z,20.20
2018-08-30T04:36:59.003Z,20.20
2018-08-30T04:39:27.503Z,20.20
2018-08-30T04:41:56.156Z,20.20
2018-08-30T04:44:24.650Z,20.20
2018-08-30T04:46:53.149Z,20.20
2018-08-30T04:49:21.648Z,20.30
2018-08-30T04:51:50.208Z,20.30
2018-08-30T04:54:18.711Z,20.30
2018-08-30T04:56:47.236Z,20.30
2018-08-30T04:59:15.729Z,20.30
2018-08-30T05:01:44.597Z,20.40
2018-08-30T05:04:13.147Z,20.40
2018-08-30T05:06:41.643Z,20.50
2018-08-30T05:09:11.702Z,20.50
2018-08-30T05:11:40.223Z,20.60
2018-08-30T05:14:09.381Z,20.70
2018-08-30T05:16:38.408Z,20.80
2018-08-30T05:19:06.876Z,20.90
2018-08-30T05:21:36.052Z,20.90
2018-08-30T05:24:04.553Z,21.00
2018-08-30T05:26:33.047Z,21.20
2018-08-30T05:29:01.535Z,21.20
2018-08-30T05:31:30.052Z,21.30
2018-08-30T05:33:58.555Z,21.30
2018-08-30T05:36:27.063Z,21.40
2018-08-30T05:38:55.564Z,21.40
2018-08-30T05:41:24.062Z,21.40
2018-08-30T05:43:52.567Z,21.40
2018-08-30T05:46:21.068Z,21.40
2018-08-30T05:48:49.564Z,21.40
2018-08-30T05:51:18.059Z,21.40
2018-08-30T05:53:46.562Z,21.50
2018-08-30T05:56:15.103Z,21.50
2018-08-30T05:58:43.601Z,21.60
2018-08-30T06:01:12.582Z,21.60
2018-08-30T06:03:41.087Z,21.60
2018-08-30T06:06:09.584Z,21.60
2018-08-30T06:08:38.099Z,21.70
2018-08-30T06:11:07.063Z,21.70
2018-08-30T06:13:35.573Z,21.80
2018-08-30T06:16:04.092Z,21.90
2018-08-30T06:18:32.919Z,22.00
2018-08-30T06:21:01.439Z,22.10
2018-08-30T06:23:29.945Z,22.30
2018-08-30T06:25:58.799Z,22.40
2018-08-30T06:28:27.306Z,22.40
2018-08-30T06:30:55.795Z,22.40
2018-08-30T06:33:24.287Z,22.60
2018-08-30T06:35:52.783Z,22.60
2018-08-30T06:38:21.294Z,22.70
2018-08-30T06:40:49.787Z,22.70
2018-08-30T06:43:18.679Z,22.80
2018-08-30T06:45:47.191Z,22.90
2018-08-30T06:48:15.683Z,23.00
2018-08-30T06:50:44.194Z,23.10
2018-08-30T06:53:12.704Z,23.30
2018-08-30T06:55:41.215Z,23.40
2018-08-30T06:58:09.719Z,23.50
2018-08-30T07:00:38.207Z,23.60
2018-08-30T07:03:07.231Z,23.70
2018-08-30T07:05:35.760Z,23.80
2018-08-30T07:08:04.301Z,23.80
2018-08-30T07:10:32.808Z,23.90
2018-08-30T07:13:05.845Z,23.90
2018-08-30T07:15:34.412Z,24.00
2018-08-30T07:18:02.910Z,24.10
2018-08-30T07:20:31.411Z,24.20
2018-08-30T07:22:59.943Z,24.40
2018-08-30T07:25:28.773Z,24.50
2018-08-30T07:27:57.283Z,24.70
2018-08-30T07:30:25.784Z,24.80
2018-08-30T07:32:54.275Z,25.00
2018-08-30T07:35:22.780Z,25.10
2018-08-30T07:37:51.267Z,25.30
2018-08-30T07:40:20.007Z,25.40
2018-08-30T07:42:48.510Z,25.50
2018-08-30T07:45:17.022Z,25.60
2018-08-30T07:47:45.523Z,25.80
2018-08-30T07:50:14.025Z,26.00
2018-08-30T07:52:42.538Z,26.10
2018-08-30T07:55:11.035Z,26.30
2018-08-30T07:57:39.531Z,26.40
2018-08-30T08:00:08.347Z,26.60
2018-08-30T08:02:36.810Z,26.70
2018-08-30T08:05:05.303Z,26.80
2018-08-30T08:07:33.866Z,26.80
2018-08-30T08:10:02.366Z,26.80
2018-08-30T08:12:30.906Z,26.90
2018-08-30T08:14:59.402Z,27.10
2018-08-30T08:17:27.905Z,27.10
2018-08-30T08:19:56.408Z,27.30
2018-08-30T08:22:25.091Z,27.40
2018-08-30T08:24:53.634Z,27.50
2018-08-30T08:27:22.116Z,27.60
2018-08-30T08:29:50.921Z,27.60
2018-08-30T08:32:19.429Z,27.50
2018-08-30T08:34:47.934Z,27.40
2018-08-30T08:37:16.447Z,27.40
2018-08-30T08:39:45.041Z,27.40
2018-08-30T08:42:13.543Z,27.40
2018-08-30T08:44:42.043Z,27.40
2018-08-30T08:47:10.568Z,27.40
2018-08-30T08:49:39.114Z,27.30
2018-08-30T08:52:07.634Z,27.30
2018-08-30T08:54:36.692Z,27.30
2018-08-30T08:57:05.598Z,27.20
2018-08-30T08:59:34.097Z,27.20
2018-08-30T09:02:02.951Z,27.30
2018-08-30T09:04:31.467Z,27.20
2018-08-30T09:06:59.968Z,27.10
2018-08-30T09:09:28.455Z,27.00
2018-08-30T09:11:56.952Z,26.80
2018-08-30T09:14:25.538Z,26.70
2018-08-30T09:16:53.986Z,26.60
2018-08-30T09:19:22.495Z,26.50
2018-08-30T09:21:51.008Z,26.40
2018-08-30T09:24:19.500Z,26.30
2018-08-30T09:26:48.072Z,26.20
2018-08-30T09:29:16.509Z,26.10
2018-08-30T09:31:45.004Z,26.10
2018-08-30T09:34:13.516Z,26.00
2018-08-30T09:36:42.027Z,26.00
2018-08-30T09:39:10.727Z,25.90
2018-08-30T09:41:39.415Z,25.90
2018-08-30T09:44:07.923Z,25.80
2018-08-30T09:46:36.432Z,25.80
2018-08-30T09:49:05.463Z,25.70
2018-08-30T09:51:34.468Z,25.70
2018-08-30T09:54:02.983Z,25.70
2018-08-30T09:56:31.500Z,25.70
2018-08-30T09:59:00.003Z,25.60
2018-08-30T10:01:33.787Z,25.60
2018-08-30T10:04:02.803Z,25.60
2018-08-30T10:06:31.647Z,25.50
2018-08-30T10:09:00.991Z,25.50
2018-08-30T10:11:29.495Z,25.40
2018-08-30T10:13:57.995Z,25.40
2018-08-30T10:16:26.491Z,25.30
2018-08-30T10:18:54.996Z,25.20
2018-08-30T10:21:23.531Z,25.10
2018-08-30T10:23:52.055Z,25.10
2018-08-30T10:26:20.584Z,25.10
2018-08-30T10:28:49.104Z,25.00
2018-08-30T10:31:17.615Z,25.00
2018-08-30T10:33:46.126Z,25.00
2018-08-30T10:36:14.623Z,25.00
2018-08-30T10:38:43.125Z,24.90
2018-08-30T10:41:11.624Z,24.90
2018-08-30T10:43:40.137Z,24.80
2018-08-30T10:46:08.664Z,24.80
2018-08-30T10:48:37.172Z,24.70
2018-08-30T10:51:05.716Z,24.70
2018-08-30T10:53:34.255Z,24.70
2018-08-30T10:56:02.808Z,24.70
2018-08-30T10:58:31.691Z,24.70
2018-08-30T11:01:00.187Z,24.60
2018-08-30T11:03:28.763Z,24.60
2018-08-30T11:05:57.263Z,24.60
2018-08-30T11:08:25.802Z,24.60
2018-08-30T11:10:54.297Z,24.70
2018-08-30T11:13:22.834Z,24.60
2018-08-30T11:15:51.304Z,24.50
2018-08-30T11:18:19.816Z,24.50
2018-08-30T11:20:48.319Z,24.50
2018-08-30T11:23:16.816Z,24.40
2018-08-30T11:25:45.315Z,24.40
2018-08-30T11:28:13.823Z,24.40
2018-08-30T11:30:42.810Z,24.40
2018-08-30T11:33:11.307Z,24.40
2018-08-30T11:35:39.810Z,24.50
2018-08-30T11:38:08.316Z,24.50
2018-08-30T11:40:36.846Z,24.50
2018-08-30T11:43:05.388Z,24.50
2018-08-30T11:45:33.939Z,24.50
2018-08-30T11:48:02.516Z,24.50
2018-08-30T11:50:31.036Z,24.50
2018-08-30T11:52:59.571Z,24.40
2018-08-30T11:55:28.068Z,24.40
2018-08-30T11:57:56.802Z,24.30
2018-08-30T12:00:25.299Z,24.30
2018-08-30T12:02:53.805Z,24.30
2018-08-30T12:05:22.305Z,24.30
2018-08-30T12:07:50.811Z,24.30
2018-08-30T12:10:19.434Z,24.30
2018-08-30T12:12:47.861Z,24.30
2018-08-30T12:15:16.375Z,24.30
2018-08-30T12:17:44.880Z,24.30
2018-08-30T12:20:13.375Z,24.30
2018-08-30T12:22:41.892Z,24.20
2018-08-30T12:25:10.815Z,24.20
2018-08-30T12:27:39.323Z,24.20
2018-08-30T12:30:07.871Z,24.20
2018-08-30T12:32:36.421Z,24.20
2018-08-30T12:35:05.329Z,24.20
2018-08-30T12:37:33.775Z,24.10
2018-08-30T12:40:02.389Z,24.10
2018-08-30T12:42:30.817Z,24.10
2018-08-30T12:44:59.759Z,24.00
2018-08-30T12:47:28.242Z,24.00
2018-08-30T12:49:56.810Z,24.00
2018-08-30T12:52:25.378Z,24.00
2018-08-30T12:54:53.918Z,24.00
2018-08-30T12:57:22.439Z,24.00
2018-08-30T12:59:50.867Z,24.00
2018-08-30T13:02:19.519Z,24.00
2018-08-30T13:04:48.250Z,24.00
2018-08-30T13:07:16.546Z,24.00
2018-08-30T13:09:45.152Z,23.90
2018-08-30T13:12:13.882Z,23.90
2018-08-30T13:14:42.094Z,23.90
2018-08-30T13:17:10.679Z,23.80
2018-08-30T13:19:39.444Z,23.80
2018-08-30T13:22:07.988Z,23.80
2018-08-30T13:24:36.700Z,23.80
2018-08-30T13:27:04.990Z,23.80
2018-08-30T13:29:33.549Z,23.80
2018-08-30T13:32:02.761Z,23.80
2018-08-30T13:34:31.126Z,23.80
2018-08-30T13:36:59.751Z,23.70
2018-08-30T13:39:28.224Z,23.70
2018-08-30T13:41:56.719Z,23.70
2018-08-30T13:44:25.038Z,23.70
2018-08-30T13:46:53.493Z,23.80
2018-08-30T13:49:21.945Z,23.80
2018-08-30T13:51:50.712Z,23.70
2018-08-30T13:54:19.294Z,23.70
2018-08-30T13:56:48.016Z,23.70
2018-08-30T13:59:16.356Z,23.60
2018-08-30T14:01:45.359Z,23.60
2018-08-30T14:04:13.851Z,23.60
2018-08-30T14:06:42.459Z,23.60
2018-08-30T14:09:10.927Z,23.60
2018-08-30T14:11:39.377Z,23.50
2018-08-30T14:14:07.817Z,23.50
2018-08-30T14:16:36.132Z,23.50
2018-08-30T14:19:04.880Z,23.50
2018-08-30T14:21:33.331Z,23.50
2018-08-30T14:24:01.840Z,23.40
2018-08-30T14:26:30.642Z,23.40
2018-08-30T14:28:59.167Z,23.50
2018-08-30T14:31:27.674Z,23.50
2018-08-30T14:33:56.172Z,23.40
2018-08-30T14:36:24.703Z,23.50
2018-08-30T14:38:53.309Z,23.40
2018-08-30T14:41:21.828Z,23.40
2018-08-30T14:43:50.257Z,23.40
2018-08-30T14:46:18.795Z,23.40
2018-08-30T14:48:47.267Z,23.40
2018-08-30T14:51:15.832Z,23.40
2018-08-30T14:53:44.420Z,23.40
2018-08-30T14:56:12.947Z,23.40
2018-08-30T14:58:41.455Z,23.40
2018-08-30T15:01:09.907Z,23.40
2018-08-30T15:03:38.413Z,23.40
2018-08-30T15:06:06.938Z,23.30
2018-08-30T15:08:35.439Z,23.30
2018-08-30T15:11:03.945Z,23.30
2018-08-30T15:13:32.444Z,23.30
2018-08-30T15:16:00.935Z,23.20
2018-08-30T15:18:29.439Z,23.20
2018-08-30T15:20:57.950Z,23.20
2018-08-30T15:23:26.624Z,23.20
2018-08-30T15:25:54.955Z,23.20
2018-08-30T15:28:29.923Z,23.20
2018-08-30T15:30:58.425Z,23.10
2018-08-30T15:33:26.932Z,23.10
2018-08-30T15:35:55.821Z,23.10
2018-08-30T15:38:24.587Z,23.10
2018-08-30T15:40:53.098Z,23.10
2018-08-30T15:43:21.611Z,23.10
2018-08-30T15:45:50.128Z,23.10
2018-08-30T15:48:18.679Z,23.00
2018-08-30T15:50:47.156Z,23.00
2018-08-30T15:53:15.720Z,23.00
2018-08-30T15:55:44.167Z,23.00
2018-08-30T15:58:12.655Z,22.90
2018-08-30T16:00:41.165Z,22.90
2018-08-30T16:03:09.703Z,22.90
2018-08-30T16:05:38.210Z,22.90
2018-08-30T16:08:06.707Z,23.00
2018-08-30T16:10:35.231Z,23.00
2018-08-30T16:13:03.893Z,22.90
2018-08-30T16:15:32.259Z,22.80
2018-08-30T16:18:00.782Z,22.80
2018-08-30T16:20:29.296Z,22.70
2018-08-30T16:23:05.914Z,22.70
2018-08-30T16:25:35.152Z,22.60
2018-08-30T16:28:04.408Z,22.60
2018-08-30T16:30:33.024Z,22.50
2018-08-30T16:33:01.464Z,22.50
2018-08-30T16:35:29.968Z,22.50
2018-08-30T16:37:58.494Z,22.40
2018-08-30T16:40:26.997Z,22.40
2018-08-30T16:42:55.577Z,22.40
2018-08-30T16:45:24.028Z,22.40
2018-08-30T16:47:52.550Z,22.40
2018-08-30T16:50:21.045Z,22.40
2018-08-30T16:52:49.547Z,22.40
2018-08-30T16:55:18.058Z,22.30
2018-08-30T16:57:46.597Z,22.30
2018-08-30T17:00:15.083Z,22.30
2018-08-30T17:02:43.582Z,22.30
2018-08-30T17:05:12.091Z,22.30
2018-08-30T17:07:40.590Z,22.20
2018-08-30T17:10:09.095Z,22.20
2018-08-30T17:12:37.760Z,22.20
2018-08-30T17:15:06.259Z,22.20
2018-08-30T17:17:34.838Z,22.20
2018-08-30T17:20:03.935Z,22.20
2018-08-30T17:22:32.427Z,22.10
2018-08-30T17:25:00.934Z,22.20
2018-08-30T17:27:29.451Z,22.10
2018-08-30T17:29:57.951Z,22.10
2018-08-30T17:32:26.475Z,22.10
2018-08-30T17:34:54.991Z,22.10
2018-08-30T17:37:23.538Z,22.10
2018-08-30T17:39:52.035Z,22.10
2018-08-30T17:42:20.560Z,22.10
2018-08-30T17:44:49.075Z,22.00
2018-08-30T17:47:17.585Z,22.00
2018-08-30T17:49:46.459Z,22.00
2018-08-30T17:52:14.969Z,22.00
2018-08-30T17:54:43.501Z,22.00
2018-08-30T17:57:12.007Z,22.00
2018-08-30T17:59:40.524Z,22.00
2018-08-30T18:02:09.027Z,22.00
2018-08-30T18:04:37.559Z,22.00
2018-08-30T18:07:06.462Z,21.90
2018-08-30T18:09:35.021Z,21.90
2018-08-30T18:12:03.530Z,21.90
2018-08-30T18:14:31.955Z,21.90
2018-08-30T18:17:00.455Z,21.90
2018-08-30T18:19:28.951Z,21.90
2018-08-30T18:21:57.446Z,21.90
2018-08-30T18:24:25.948Z,21.90
2018-08-30T18:26:54.449Z,21.90
2018-08-30T18:29:22.956Z,21.80
2018-08-30T18:31:51.448Z,21.80
2018-08-30T18:34:19.995Z,21.80
2018-08-30T18:36:48.500Z,21.80
2018-08-30T18:39:16.992Z,21.80
2018-08-30T18:41:45.504Z,21.80
2018-08-30T18:44:14.040Z,21.80
2018-08-30T18:46:42.572Z,21.80
2018-08-30T18:49:11.132Z,21.80
2018-08-30T18:51:39.651Z,21.80
2018-08-30T18:54:08.172Z,21.70
2018-08-30T18:56:36.668Z,21.70
2018-08-30T18:59:05.340Z,21.70
2018-08-30T19:01:33.831Z,21.70
2018-08-30T19:04:02.327Z,21.70
2018-08-30T19:06:30.824Z,21.70
2018-08-30T19:08:59.377Z,21.70
2018-08-30T19:11:27.880Z,21.70
2018-08-30T19:13:56.375Z,21.60
2018-08-30T19:16:30.051Z,21.60
2018-08-30T19:19:03.791Z,21.60
2018-08-30T19:21:32.283Z,21.60
2018-08-30T19:24:00.780Z,21.60
2018-08-30T19:26:29.278Z,21.60
2018-08-30T19:28:57.793Z,21.60
2018-08-30T19:31:26.327Z,21.60
2018-08-30T19:33:54.940Z,21.60
2018-08-30T19:36:29.488Z,21.60
2018-08-30T19:38:58.440Z,21.50
2018-08-30T19:41:26.954Z,21.50
2018-08-30T19:43:55.458Z,21.50
2018-08-30T19:46:24.515Z,21.50
2018-08-30T19:48:53.672Z,21.50
2018-08-30T19:51:22.183Z,21.50
2018-08-30T19:53:50.770Z,21.50
2018-08-30T19:56:19.256Z,21.50
2018-08-30T19:58:47.760Z,21.50
2018-08-30T20:01:16.259Z,21.50
2018-08-30T20:03:45.000Z,21.50
2018-08-30T20:06:13.512Z,21.50
2018-08-30T20:08:42.012Z,21.40
2018-08-30T20:11:10.509Z,21.40
2018-08-30T20:13:39.432Z,21.40
2018-08-30T20:16:07.925Z,21.40
2018-08-30T20:18:36.431Z,21.40
2018-08-30T20:21:04.927Z,21.40
2018-08-30T20:23:33.423Z,21.40
2018-08-30T20:26:01.936Z,21.40
2018-08-30T20:28:30.426Z,21.40
2018-08-30T20:30:58.924Z,21.40
2018-08-30T20:33:27.431Z,21.40
2018-08-30T20:35:55.932Z,21.40
2018-08-30T20:38:24.435Z,21.30
2018-08-30T20:40:52.930Z,21.30
2018-08-30T20:43:21.435Z,21.30
2018-08-30T20:45:49.935Z,21.30
2018-08-30T20:48:18.439Z,21.30
2018-08-30T20:50:46.951Z,21.30
2018-08-30T20:53:15.475Z,21.30
2018-08-30T20:55:43.979Z,21.30
2018-08-30T20:58:12.487Z,21.20
2018-08-30T21:00:40.984Z,21.20
2018-08-30T21:03:09.536Z,21.20
2018-08-30T21:05:38.060Z,21.20
2018-08-30T21:08:06.562Z,21.20
2018-08-30T21:13:09.875Z,21.20
2018-08-30T21:15:38.379Z,21.20
2018-08-30T21:18:06.883Z,21.20
2018-08-30T21:20:35.379Z,21.20
2018-08-30T21:23:03.895Z,21.20
2018-08-30T21:25:32.390Z,21.20
2018-08-30T21:28:00.903Z,21.20
2018-08-30T21:30:29.421Z,21.20
2018-08-30T21:32:57.915Z,21.20
2018-08-30T21:35:26.469Z,21.10
2018-08-30T21:37:55.030Z,21.10
2018-08-30T21:40:23.517Z,21.10
2018-08-30T21:42:52.083Z,21.10
2018-08-30T21:45:20.573Z,21.10
2018-08-30T21:47:49.066Z,21.10
2018-08-30T21:50:17.571Z,21.10
2018-08-30T21:52:46.071Z,21.10
2018-08-30T21:55:14.637Z,21.10
2018-08-30T21:57:43.138Z,21.10
2018-08-30T22:00:11.715Z,21.10
2018-08-30T22:02:40.269Z,21.10
2018-08-30T22:05:08.767Z,21.10
2018-08-30T22:07:37.258Z,21.00
2018-08-30T22:10:06.168Z,21.10
2018-08-30T22:12:34.668Z,21.10
2018-08-30T22:15:03.175Z,21.00
2018-08-30T22:17:31.675Z,21.00
2018-08-30T22:20:00.182Z,21.00
2018-08-30T22:22:28.680Z,21.00
2018-08-30T22:24:57.186Z,21.00
2018-08-30T22:27:25.676Z,21.00
2018-08-30T22:29:54.174Z,21.00
2018-08-30T22:32:23.062Z,21.00
2018-08-30T22:34:51.571Z,21.00
2018-08-30T22:37:20.072Z,21.00
2018-08-30T22:39:48.581Z,20.90
2018-08-30T22:42:17.078Z,20.90
2018-08-30T22:44:45.568Z,20.90
2018-08-30T22:47:14.063Z,20.90
2018-08-30T22:49:42.575Z,20.90
2018-08-30T22:52:11.173Z,20.90
2018-08-30T22:54:39.742Z,20.90
2018-08-30T22:57:08.252Z,20.90
2018-08-30T22:59:36.743Z,20.90
2018-08-30T23:02:05.428Z,20.90
2018-08-30T23:04:33.943Z,20.90
2018-08-30T23:07:02.449Z,20.90
2018-08-30T23:09:30.964Z,20.90
2018-08-30T23:11:59.487Z,20.90
2018-08-30T23:14:28.001Z,20.90
2018-08-30T23:16:57.122Z,20.80
2018-08-30T23:19:25.659Z,20.80
2018-08-30T23:21:54.150Z,20.80
2018-08-30T23:24:22.664Z,20.80
2018-08-30T23:26:51.172Z,20.80
2018-08-30T23:29:19.681Z,20.80
2018-08-30T23:31:48.183Z,20.80
2018-08-30T23:34:16.679Z,20.80
2018-08-30T23:36:45.163Z,20.80
2018-08-30T23:39:13.945Z,20.80
2018-08-30T23:41:42.455Z,20.80
2018-08-30T23:44:10.951Z,20.80
2018-08-30T23:46:40.375Z,20.70
2018-08-30T23:49:08.871Z,20.70
2018-08-30T23:51:37.376Z,20.70
2018-08-30T23:54:06.268Z,20.70
2018-08-30T23:56:34.767Z,20.70
2018-08-30T23:59:14.391Z,20.60
